< Typhoon 197411 1974 Season Typhoon 197413 >
Typhoon 197412 (KIM)
General InformationTrack Information on Google Maps || Disaster Info.ResourceGoogle EarthGE AnimationAtom FeedGeoJSON
Detalied Best Track (Time Zone = UTC)
Year Month Day Hour Lat. Long. Pressure (hPa) Wind (kt) Class Image Chart
1974 7 22 00 21.0 166.0 1010 0 2 -- Chart
1974 7 22 06 21.5 166.6 1008 0 2 -- Chart
1974 7 22 12 22.0 167.0 1010 0 2 -- Chart
1974 7 22 18 22.8 166.8 1008 0 2 -- Chart
1974 7 23 00 23.5 166.5 1004 0 2 -- Chart
1974 7 23 06 24.3 166.9 1000 0 2 -- Chart
1974 7 23 12 25.0 167.0 1000 0 9 -- Chart
1974 7 23 18 26.0 166.9 998 0 9 -- Chart
1974 7 24 00 26.8 166.6 996 0 9 -- Chart
1974 7 24 06 27.4 165.4 990 0 9 -- Chart
1974 7 24 12 27.0 164.4 992 0 9 -- Chart
1974 7 24 18 26.7 163.5 992 0 6 -- Chart
1974 7 25 00 26.5 163.0 992 0 6 -- Chart
1974 7 25 06 27.2 163.2 992 0 6 -- Chart
1974 7 25 12 27.9 163.4 992 0 6 -- Chart
1974 7 25 18 28.4 163.8 992 0 6 -- Chart
1974 7 26 00 29.1 164.2 992 0 6 -- Chart
1974 7 26 06 30.5 165.3 992 0 6 -- Chart
1974 7 26 12 32.0 166.6 992 0 6 -- Chart
1974 7 26 18 34.0 168.0 992 0 6 -- Chart
1974 7 27 00 36.4 169.2 992 0 6 -- Chart
1974 7 27 06 39.0 170.0 994 0 6 -- Chart
1974 7 27 12 41.8 171.0 994 0 6 -- Chart
1974 7 27 18 44.7 172.6 994 0 6 -- Chart
1974 7 28 00 48.9 174.7 994 0 6 -- Chart
1974 7 28 06 51.7 179.6 992 0 6 -- Chart
1974 7 28 12 53.9 181.3 992 0 6 -- Chart
Japan Meteorological Agency Best Track Data | Correction Date : 1989-06-01
< Typhoon 197411 1974 Season Typhoon 197413 >

Help